createdAt,value
2022-11-01T00:01:04.164Z,56.35
2022-11-01T00:06:10.334Z,61.01
2022-11-01T00:11:16.493Z,53.29
2022-11-01T00:16:22.697Z,60.57
2022-11-01T00:21:29.089Z,60.17
2022-11-01T00:26:35.322Z,63.04
2022-11-01T00:31:41.516Z,60.83
2022-11-01T00:36:47.559Z,60.68
2022-11-01T00:41:53.803Z,65.68
2022-11-01T00:46:59.857Z,64.44
2022-11-01T00:52:06.021Z,66.07
2022-11-01T00:57:12.080Z,65.52
2022-11-01T01:02:18.353Z,64.32
2022-11-01T01:07:24.422Z,68.85
2022-11-01T01:12:30.636Z,66.94
2022-11-01T01:17:36.737Z,71.26
2022-11-01T01:22:42.923Z,60.52
2022-11-01T01:27:49.062Z,58.57
2022-11-01T01:32:55.231Z,64.57
2022-11-01T01:38:01.725Z,61.12
2022-11-01T01:43:07.105Z,62.34
2022-11-01T01:48:13.196Z,58.36
2022-11-01T01:53:19.465Z,59.63
2022-11-01T01:58:25.577Z,61.92
2022-11-01T02:03:31.928Z,55.05
2022-11-01T02:08:37.980Z,54.38
2022-11-01T02:13:44.117Z,58.12
2022-11-01T02:18:50.200Z,56.49
2022-11-01T02:23:56.554Z,54.04
2022-11-01T02:29:05.682Z,53.68
2022-11-01T02:34:08.289Z,46.62
2022-11-01T02:44:20.193Z,49.84
2022-11-01T02:49:26.249Z,48.43
2022-11-01T02:54:32.398Z,46.45
2022-11-01T02:59:38.558Z,49.30
2022-11-01T03:04:44.720Z,46.55
2022-11-01T03:09:51.214Z,48.30
2022-11-01T03:14:57.559Z,47.08
2022-11-01T03:20:04.083Z,43.96
2022-11-01T03:25:10.271Z,44.33
2022-11-01T03:30:16.349Z,43.60
2022-11-01T03:35:22.990Z,39.94
2022-11-01T03:40:29.125Z,36.93
2022-11-01T03:45:35.339Z,31.61
2022-11-01T03:50:41.385Z,31.87
2022-11-01T03:55:47.935Z,33.28
2022-11-01T04:00:54.013Z,28.57
2022-11-01T04:06:00.583Z,29.60
2022-11-01T04:11:06.667Z,25.58
2022-11-01T04:16:12.930Z,25.29
2022-11-01T04:21:18.990Z,26.07
2022-11-01T04:26:25.108Z,26.32
2022-11-01T04:31:31.553Z,22.67
2022-11-01T04:36:37.951Z,22.99
2022-11-01T04:41:44.119Z,23.99
2022-11-01T04:46:50.296Z,23.51
2022-11-01T04:51:56.377Z,20.00
2022-11-01T04:57:02.560Z,20.27
2022-11-01T05:02:08.792Z,18.76
2022-11-01T05:07:14.930Z,19.56
2022-11-01T05:12:20.990Z,19.57
2022-11-01T05:17:27.227Z,19.59
2022-11-01T05:22:33.370Z,19.95
2022-11-01T05:27:39.621Z,17.21
2022-11-01T05:32:45.688Z,17.05
2022-11-01T05:37:51.993Z,18.28
2022-11-01T05:42:58.121Z,15.46
2022-11-01T05:48:04.328Z,15.80
2022-11-01T05:53:10.961Z,16.01
2022-11-01T05:58:17.446Z,17.43
2022-11-01T06:03:23.584Z,12.78
2022-11-01T06:08:30.157Z,12.90
2022-11-01T06:13:36.221Z,12.21
2022-11-01T06:18:42.552Z,11.81
2022-11-01T06:23:48.620Z,15.13
2022-11-01T06:28:54.925Z,11.71
2022-11-01T06:34:01.329Z,11.42
2022-11-01T06:39:07.579Z,11.33
2022-11-01T06:44:13.640Z,12.23
2022-11-01T06:49:19.787Z,9.74
2022-11-01T06:54:25.905Z,10.31
2022-11-01T06:59:32.097Z,9.98
2022-11-01T07:04:38.152Z,10.13
2022-11-01T07:09:44.718Z,10.65
2022-11-01T07:14:51.097Z,11.95
2022-11-01T07:19:57.304Z,11.82
2022-11-01T07:25:04.138Z,9.49
2022-11-01T07:30:10.645Z,9.08
2022-11-01T07:35:17.038Z,8.48
2022-11-01T07:40:23.294Z,8.85
2022-11-01T07:45:58.270Z,9.74
2022-11-01T07:51:04.424Z,6.41
2022-11-01T07:56:10.475Z,6.26
2022-11-01T08:01:17.108Z,7.41
2022-11-01T08:11:28.916Z,6.11
2022-11-01T08:16:34.971Z,5.10
2022-11-01T08:21:41.118Z,4.08
2022-11-01T08:26:47.188Z,3.34
2022-11-01T08:31:53.464Z,3.54
2022-11-01T08:36:59.428Z,4.42
2022-11-01T08:42:06.390Z,4.06
2022-11-01T08:47:12.737Z,4.06
2022-11-01T08:52:18.855Z,2.98
2022-11-01T08:57:24.905Z,3.79
2022-11-01T09:02:31.116Z,3.19
2022-11-01T09:07:37.137Z,3.39
2022-11-01T09:12:44.917Z,4.00
2022-11-01T09:17:51.325Z,3.89
2022-11-01T09:22:57.488Z,5.70
2022-11-01T09:28:03.547Z,6.42
2022-11-01T09:33:10.072Z,5.81
2022-11-01T09:38:16.127Z,5.10
2022-11-01T09:43:22.308Z,7.18
2022-11-01T09:48:28.376Z,8.64
2022-11-01T09:53:34.541Z,10.31
2022-11-01T09:58:40.619Z,9.98
2022-11-01T10:03:47.524Z,9.38
2022-11-01T10:08:53.614Z,8.81
2022-11-01T10:13:59.812Z,14.70
2022-11-01T10:19:05.920Z,13.46
2022-11-01T10:24:12.060Z,9.71
2022-11-01T10:29:18.130Z,10.71
2022-11-01T10:34:24.351Z,11.35
2022-11-01T10:39:53.930Z,9.64
2022-11-01T10:44:36.235Z,15.82
2022-11-01T10:50:04.734Z,15.36
2022-11-01T10:54:48.373Z,12.78
2022-11-01T10:59:54.418Z,8.78
2022-11-01T11:05:00.607Z,13.65
2022-11-01T11:10:06.771Z,11.65
2022-11-01T11:15:12.924Z,11.21
2022-11-01T11:20:18.973Z,9.87
2022-11-01T11:25:25.230Z,10.01
2022-11-01T11:30:31.299Z,14.80
2022-11-01T11:35:37.458Z,9.61
2022-11-01T11:40:43.845Z,10.75
2022-11-01T11:45:50.059Z,11.90
2022-11-01T11:50:56.895Z,13.69
2022-11-01T11:56:03.184Z,13.58
2022-11-01T12:01:09.377Z,13.61
2022-11-01T12:06:15.518Z,7.86
2022-11-01T12:11:21.568Z,10.28
2022-11-01T12:21:33.321Z,12.56
2022-11-01T12:26:39.450Z,12.27
2022-11-01T12:31:45.533Z,13.30
2022-11-01T12:36:51.720Z,10.92
2022-11-01T12:41:57.807Z,13.51
2022-11-01T12:47:03.907Z,11.33
2022-11-01T12:52:10.026Z,12.50
2022-11-01T12:57:16.301Z,14.43
2022-11-01T13:02:22.530Z,12.15
2022-11-01T13:07:28.693Z,10.64
2022-11-01T13:12:35.111Z,11.69
2022-11-01T13:17:41.246Z,11.01
2022-11-01T13:22:47.312Z,12.51
2022-11-01T13:27:53.827Z,14.04
2022-11-01T13:33:00.375Z,8.59
2022-11-01T13:38:05.756Z,11.88
2022-11-01T13:43:12.161Z,12.12
2022-11-01T13:48:18.416Z,13.11
2022-11-01T13:53:24.524Z,9.74
2022-11-01T13:58:30.743Z,11.59
2022-11-01T14:03:36.839Z,11.92
2022-11-01T14:08:43.167Z,10.95
2022-11-01T14:13:49.271Z,11.74
2022-11-01T14:18:55.611Z,9.30
2022-11-01T14:24:01.668Z,13.52
2022-11-01T14:29:07.859Z,9.19
2022-11-01T14:34:14.251Z,11.08
2022-11-01T14:39:20.450Z,11.17
2022-11-01T14:44:26.542Z,8.35
2022-11-01T14:49:33.035Z,10.08
2022-11-01T14:54:55.878Z,10.77
2022-11-01T15:00:02.096Z,11.47
2022-11-01T15:05:08.161Z,8.17
2022-11-01T15:10:14.355Z,10.91
2022-11-01T15:15:20.448Z,9.04
2022-11-01T15:20:26.700Z,7.62
2022-11-01T15:25:32.746Z,9.51
2022-11-01T15:30:39.082Z,12.18
2022-11-01T15:35:45.170Z,8.83
2022-11-01T15:40:51.360Z,8.65
2022-11-01T15:46:00.171Z,6.03
2022-11-01T15:51:06.437Z,7.14
2022-11-01T15:56:12.525Z,7.17
2022-11-01T16:01:19.289Z,7.44
2022-11-01T16:06:25.269Z,9.81
2022-11-01T16:11:31.884Z,9.45
2022-11-01T16:16:37.930Z,11.48
2022-11-01T16:21:44.206Z,10.98
2022-11-01T16:26:51.101Z,8.90
2022-11-01T16:31:57.331Z,10.24
2022-11-01T16:37:03.736Z,9.18
2022-11-01T16:42:10.009Z,8.92
2022-11-01T16:47:16.114Z,8.30
2022-11-01T16:52:22.272Z,9.18
2022-11-01T16:57:30.888Z,8.42
2022-11-01T17:02:37.103Z,9.57
2022-11-01T17:07:43.414Z,9.57
2022-11-01T17:12:49.647Z,8.32
2022-11-01T17:17:55.710Z,11.93
2022-11-01T17:23:01.991Z,11.82
2022-11-01T17:28:08.082Z,10.03
2022-11-01T17:33:14.255Z,9.64
2022-11-01T17:38:21.157Z,7.35
2022-11-01T17:43:27.351Z,7.98
2022-11-01T17:48:33.465Z,11.77
2022-11-01T17:53:39.923Z,9.20
2022-11-01T17:58:51.145Z,12.66
2022-11-01T18:03:51.854Z,9.05
2022-11-01T18:08:57.974Z,10.40
2022-11-01T18:14:04.290Z,10.24
2022-11-01T18:19:10.336Z,10.64
2022-11-01T18:24:22.012Z,7.39
2022-11-01T18:29:22.067Z,8.78
2022-11-01T18:34:30.514Z,8.97
2022-11-01T18:39:36.752Z,10.29
2022-11-01T18:44:43.236Z,9.76
2022-11-01T18:49:49.371Z,7.58
2022-11-01T18:54:56.914Z,9.77
2022-11-01T19:00:01.441Z,10.05
2022-11-01T19:05:07.675Z,11.02
2022-11-01T19:10:13.718Z,9.41
2022-11-01T19:15:19.876Z,9.64
2022-11-01T19:20:25.990Z,10.33
2022-11-01T19:25:32.362Z,9.34
2022-11-01T19:30:38.419Z,13.20
2022-11-01T19:35:44.618Z,9.21
2022-11-01T19:40:51.006Z,8.45
2022-11-01T19:45:57.191Z,8.84
2022-11-01T19:51:03.249Z,8.77
2022-11-01T19:56:09.784Z,9.83
2022-11-01T20:01:16.327Z,7.79
2022-11-01T20:06:22.585Z,5.87
2022-11-01T20:11:28.669Z,8.37
2022-11-01T20:16:34.955Z,7.96
2022-11-01T20:21:41.435Z,10.14
2022-11-01T20:26:47.573Z,7.34
2022-11-01T20:31:53.636Z,8.68
2022-11-01T20:37:27.558Z,11.39
2022-11-01T20:42:05.806Z,7.84
2022-11-01T20:47:12.036Z,8.54
2022-11-01T20:52:38.492Z,9.68
2022-11-01T20:57:28.421Z,9.88
2022-11-01T21:02:29.701Z,8.27
2022-11-01T21:07:35.933Z,9.04
2022-11-01T21:12:42.072Z,8.40
2022-11-01T21:17:48.233Z,8.12
2022-11-01T21:22:54.298Z,10.02
2022-11-01T21:28:00.705Z,8.80
2022-11-01T21:33:07.174Z,8.56
2022-11-01T21:38:13.401Z,8.34
2022-11-01T21:43:19.450Z,7.29
2022-11-01T21:48:25.622Z,8.07
2022-11-01T21:53:31.714Z,6.23
2022-11-01T21:58:38.026Z,7.96
2022-11-01T22:03:44.070Z,6.01
2022-11-01T22:08:50.295Z,8.47
2022-11-01T22:13:56.350Z,8.05
2022-11-01T22:19:02.467Z,10.69
2022-11-01T22:24:08.529Z,8.28
2022-11-01T22:29:14.754Z,7.09
2022-11-01T22:34:20.858Z,9.68
2022-11-01T22:39:27.102Z,8.47
2022-11-01T22:44:33.932Z,6.71
2022-11-01T22:49:40.173Z,9.81
2022-11-01T22:54:46.274Z,7.55
2022-11-01T22:59:52.547Z,8.58
2022-11-01T23:04:58.690Z,10.18
2022-11-01T23:10:04.832Z,8.01
2022-11-01T23:15:10.981Z,8.86
2022-11-01T23:20:17.367Z,8.49
2022-11-01T23:25:23.538Z,8.16
2022-11-01T23:30:30.243Z,7.11
2022-11-01T23:35:36.326Z,7.14
2022-11-01T23:40:42.519Z,9.98
2022-11-01T23:45:48.636Z,9.63
2022-11-01T23:50:54.894Z,8.24
2022-11-01T23:56:00.994Z,8.45
